createdAt,value
2017-08-15T00:00:51.689Z,15.66
2017-08-15T00:03:19.502Z,15.56
2017-08-15T00:05:47.260Z,15.51
2017-08-15T00:08:15.148Z,15.43
2017-08-15T00:10:42.842Z,15.20
2017-08-15T00:13:10.618Z,15.49
2017-08-15T00:15:38.446Z,15.35
2017-08-15T00:18:06.260Z,15.39
2017-08-15T00:20:34.052Z,15.33
2017-08-15T00:23:01.761Z,15.29
2017-08-15T00:25:29.599Z,15.41
2017-08-15T00:27:58.330Z,15.33
2017-08-15T00:30:26.067Z,15.25
2017-08-15T00:32:53.840Z,15.28
2017-08-15T00:35:21.682Z,15.28
2017-08-15T00:37:49.480Z,15.10
2017-08-15T00:40:17.248Z,15.08
2017-08-15T00:42:45.003Z,14.97
2017-08-15T00:45:12.816Z,14.86
2017-08-15T00:47:40.546Z,14.93
2017-08-15T00:50:08.365Z,14.98
2017-08-15T00:52:36.189Z,15.01
2017-08-15T00:55:03.908Z,14.94
2017-08-15T00:57:31.772Z,14.99
2017-08-15T00:59:59.621Z,14.90
2017-08-15T01:02:27.513Z,14.85
2017-08-15T01:04:55.260Z,14.82
2017-08-15T01:07:23.001Z,14.91
2017-08-15T01:09:50.732Z,14.97
2017-08-15T01:12:18.603Z,14.85
2017-08-15T01:14:46.438Z,14.77
2017-08-15T01:17:14.276Z,14.74
2017-08-15T01:19:42.093Z,14.75
2017-08-15T01:22:09.923Z,14.66
2017-08-15T01:24:37.802Z,14.53
2017-08-15T01:27:06.191Z,14.53
2017-08-15T01:29:33.903Z,14.43
2017-08-15T01:32:01.793Z,14.37
2017-08-15T01:34:29.541Z,14.47
2017-08-15T01:36:57.347Z,14.50
2017-08-15T01:39:25.056Z,14.48
2017-08-15T01:41:52.857Z,14.49
2017-08-15T01:44:20.615Z,14.38
2017-08-15T01:46:48.304Z,14.34
2017-08-15T01:49:16.085Z,14.34
2017-08-15T01:51:43.821Z,14.42
2017-08-15T01:54:11.531Z,14.39
2017-08-15T01:56:39.380Z,14.47
2017-08-15T01:59:07.086Z,14.49
2017-08-15T02:01:34.886Z,14.43
2017-08-15T02:04:02.650Z,14.44
2017-08-15T02:06:30.355Z,14.48
2017-08-15T02:08:58.160Z,14.23
2017-08-15T02:11:25.983Z,14.19
2017-08-15T02:13:53.742Z,14.16
2017-08-15T02:16:21.541Z,14.25
2017-08-15T02:18:49.245Z,14.25
2017-08-15T02:21:16.988Z,14.21
2017-08-15T02:23:44.700Z,14.14
2017-08-15T02:26:12.509Z,14.10
2017-08-15T02:28:40.356Z,14.13
2017-08-15T02:31:08.155Z,14.15
2017-08-15T02:33:35.857Z,14.20
2017-08-15T02:36:03.701Z,14.15
2017-08-15T02:38:31.532Z,14.08
2017-08-15T02:40:59.277Z,13.99
2017-08-15T02:43:27.129Z,13.99
2017-08-15T02:45:54.854Z,13.96
2017-08-15T02:48:22.699Z,13.92
2017-08-15T02:50:50.490Z,13.93
2017-08-15T02:53:18.198Z,13.99
2017-08-15T02:55:46.005Z,13.90
2017-08-15T02:58:13.764Z,13.90
2017-08-15T03:00:41.500Z,13.91
2017-08-15T03:03:09.315Z,13.85
2017-08-15T03:05:37.282Z,13.96
2017-08-15T03:08:05.076Z,13.79
2017-08-15T03:10:32.788Z,13.83
2017-08-15T03:13:01.800Z,14.04
2017-08-15T03:15:29.544Z,13.84
2017-08-15T03:17:57.325Z,13.84
2017-08-15T03:20:25.068Z,13.85
2017-08-15T03:22:52.801Z,13.73
2017-08-15T03:25:20.523Z,13.65
2017-08-15T03:27:48.274Z,13.71
2017-08-15T03:30:16.251Z,13.68
2017-08-15T03:32:44.005Z,13.66
2017-08-15T03:35:12.030Z,13.67
2017-08-15T03:37:39.910Z,13.59
2017-08-15T03:40:07.635Z,13.54
2017-08-15T03:42:35.411Z,13.55
2017-08-15T03:45:03.171Z,13.51
2017-08-15T03:47:30.961Z,13.56
2017-08-15T03:49:58.821Z,13.56
2017-08-15T03:52:26.584Z,13.50
2017-08-15T03:54:54.485Z,13.40
2017-08-15T03:57:22.298Z,13.48
2017-08-15T03:59:50.053Z,13.45
2017-08-15T04:02:17.813Z,13.42
2017-08-15T04:04:45.568Z,13.44
2017-08-15T04:07:13.688Z,13.34
2017-08-15T04:09:41.417Z,13.45
2017-08-15T04:12:09.291Z,13.44
2017-08-15T04:14:37.134Z,13.37
2017-08-15T04:17:04.971Z,13.33
2017-08-15T04:19:32.707Z,13.41
2017-08-15T04:22:00.545Z,13.49
2017-08-15T04:24:28.258Z,13.52
2017-08-15T04:26:55.955Z,13.38
2017-08-15T04:29:23.687Z,13.52
2017-08-15T04:31:51.386Z,13.48
2017-08-15T04:34:19.106Z,13.38
2017-08-15T04:36:46.806Z,13.46
2017-08-15T04:39:14.538Z,13.39
2017-08-15T04:41:42.293Z,13.32
2017-08-15T04:44:11.097Z,13.41
2017-08-15T04:46:39.034Z,13.45
2017-08-15T04:49:07.539Z,13.44
2017-08-15T04:51:35.256Z,13.40
2017-08-15T04:54:03.813Z,13.45
2017-08-15T04:56:32.487Z,13.65
2017-08-15T04:59:00.222Z,13.62
2017-08-15T05:01:27.929Z,13.62
2017-08-15T05:03:55.635Z,13.66
2017-08-15T05:06:23.388Z,13.68
2017-08-15T05:08:51.100Z,13.75
2017-08-15T05:11:18.791Z,14.10
2017-08-15T05:13:46.514Z,14.44
2017-08-15T05:16:14.229Z,14.61
2017-08-15T05:18:42.027Z,14.70
2017-08-15T05:21:09.735Z,14.88
2017-08-15T05:23:37.509Z,15.14
2017-08-15T05:26:05.241Z,15.09
2017-08-15T05:28:32.974Z,15.18
2017-08-15T05:31:00.750Z,15.43
2017-08-15T05:33:28.486Z,15.75
2017-08-15T05:35:56.313Z,16.09
2017-08-15T05:38:24.048Z,16.06
2017-08-15T05:40:51.773Z,16.14
2017-08-15T05:43:19.596Z,16.30
2017-08-15T05:45:47.291Z,16.55
2017-08-15T05:48:15.073Z,16.72
2017-08-15T05:50:42.828Z,16.94
2017-08-15T05:53:10.627Z,17.04
2017-08-15T05:55:38.490Z,17.11
2017-08-15T05:58:06.291Z,17.23
2017-08-15T06:00:34.135Z,17.39
2017-08-15T06:03:01.818Z,17.59
2017-08-15T06:05:29.495Z,18.03
2017-08-15T06:07:57.232Z,18.24
2017-08-15T06:10:24.981Z,18.08
2017-08-15T06:12:52.739Z,18.31
2017-08-15T06:15:20.475Z,18.29
2017-08-15T06:17:48.171Z,18.24
2017-08-15T06:20:16.313Z,18.61
2017-08-15T06:22:44.003Z,18.75
2017-08-15T06:25:11.773Z,18.57
2017-08-15T06:27:39.551Z,18.46
2017-08-15T06:30:07.268Z,18.36
2017-08-15T06:32:35.001Z,17.92
2017-08-15T06:35:02.769Z,18.32
2017-08-15T06:37:30.536Z,18.87
2017-08-15T06:39:58.301Z,19.02
2017-08-15T06:42:26.074Z,19.44
2017-08-15T06:44:53.801Z,19.66
2017-08-15T06:47:21.485Z,19.90
2017-08-15T06:49:49.921Z,20.03
2017-08-15T06:52:17.606Z,19.66
2017-08-15T06:54:45.333Z,19.77
2017-08-15T06:57:13.110Z,19.76
2017-08-15T06:59:40.889Z,19.98
2017-08-15T07:02:08.635Z,20.22
2017-08-15T07:04:36.342Z,20.06
2017-08-15T07:07:04.094Z,19.95
2017-08-15T07:09:31.825Z,20.37
2017-08-15T07:12:03.112Z,20.39
2017-08-15T07:14:30.953Z,20.75
2017-08-15T07:16:58.690Z,21.02
2017-08-15T07:19:26.523Z,21.74
2017-08-15T07:21:54.281Z,21.36
2017-08-15T07:24:21.987Z,21.55
2017-08-15T07:26:49.734Z,21.57
2017-08-15T07:29:17.503Z,21.81
2017-08-15T07:31:45.278Z,22.32
2017-08-15T07:34:13.015Z,22.51
2017-08-15T07:36:40.736Z,22.76
2017-08-15T07:39:08.516Z,22.31
2017-08-15T07:41:36.208Z,22.59
2017-08-15T07:44:04.033Z,22.70
2017-08-15T07:46:31.822Z,21.87
2017-08-15T07:48:59.596Z,22.11
2017-08-15T07:51:27.447Z,22.25
2017-08-15T07:53:55.241Z,21.71
2017-08-15T07:56:22.973Z,22.50
2017-08-15T07:58:50.778Z,22.89
2017-08-15T08:01:18.555Z,22.87
2017-08-15T08:03:46.337Z,23.48
2017-08-15T08:06:15.177Z,23.44
2017-08-15T08:08:42.940Z,23.48
2017-08-15T08:11:11.787Z,23.98
2017-08-15T08:13:39.562Z,23.06
2017-08-15T08:16:07.290Z,23.11
2017-08-15T08:18:35.063Z,23.25
2017-08-15T08:21:02.775Z,23.12
2017-08-15T08:23:31.644Z,23.77
2017-08-15T08:25:59.416Z,23.51
2017-08-15T08:28:27.223Z,22.98
2017-08-15T08:30:54.926Z,23.48
2017-08-15T08:33:22.676Z,23.80
2017-08-15T08:35:50.408Z,24.11
2017-08-15T08:38:18.194Z,23.89
2017-08-15T08:40:45.974Z,24.21
2017-08-15T08:43:14.552Z,24.52
2017-08-15T08:45:42.287Z,24.03
2017-08-15T08:48:10.074Z,24.10
2017-08-15T08:50:37.839Z,24.51
2017-08-15T08:53:05.691Z,24.63
2017-08-15T08:55:33.403Z,24.84
2017-08-15T08:58:01.168Z,25.08
2017-08-15T09:00:28.868Z,24.80
2017-08-15T09:02:56.611Z,24.85
2017-08-15T09:05:24.371Z,24.85
2017-08-15T09:07:52.101Z,24.32
2017-08-15T09:10:19.874Z,24.50
2017-08-15T09:12:47.634Z,24.61
2017-08-15T09:15:15.429Z,25.12
2017-08-15T09:17:43.183Z,24.82
2017-08-15T09:20:10.947Z,25.54
2017-08-15T09:22:38.736Z,25.62
2017-08-15T09:25:06.653Z,25.92
2017-08-15T09:27:34.454Z,25.12
2017-08-15T09:30:02.244Z,24.79
2017-08-15T09:32:30.118Z,25.14
2017-08-15T09:34:57.888Z,25.35
2017-08-15T09:37:25.624Z,25.78
2017-08-15T09:39:53.473Z,26.63
2017-08-15T09:42:21.235Z,26.36
2017-08-15T09:44:49.011Z,26.32
2017-08-15T09:47:16.813Z,26.18
2017-08-15T09:49:44.585Z,25.71
2017-08-15T09:52:12.301Z,25.52
2017-08-15T09:54:40.225Z,26.41
2017-08-15T09:57:08.556Z,26.47
2017-08-15T09:59:36.313Z,26.74
2017-08-15T10:02:04.068Z,26.63
2017-08-15T10:04:31.826Z,26.57
2017-08-15T10:06:59.634Z,26.42
2017-08-15T10:09:27.552Z,26.50
2017-08-15T10:11:55.391Z,26.52
2017-08-15T10:14:23.265Z,27.16
2017-08-15T10:16:51.098Z,27.08
2017-08-15T10:19:18.875Z,27.39
2017-08-15T10:21:46.697Z,27.25
2017-08-15T10:24:14.418Z,27.45
2017-08-15T10:26:42.108Z,27.36
2017-08-15T10:29:09.855Z,27.59
2017-08-15T10:31:37.544Z,28.29
2017-08-15T10:34:05.341Z,27.56
2017-08-15T10:36:33.121Z,27.32
2017-08-15T10:39:00.837Z,27.56
2017-08-15T10:41:28.674Z,27.64
2017-08-15T10:43:56.396Z,27.77
2017-08-15T10:46:24.587Z,27.92
2017-08-15T10:48:52.308Z,28.35
2017-08-15T10:51:20.066Z,28.24
2017-08-15T10:53:47.857Z,28.29
2017-08-15T10:56:15.580Z,28.07
2017-08-15T10:58:43.389Z,28.09
2017-08-15T11:01:11.171Z,28.40
2017-08-15T11:03:38.886Z,28.46
2017-08-15T11:06:06.678Z,27.91
2017-08-15T11:08:34.466Z,28.29
2017-08-15T11:11:02.159Z,28.82
2017-08-15T11:13:29.911Z,28.85
2017-08-15T11:15:57.678Z,29.01
2017-08-15T11:18:25.490Z,28.92
2017-08-15T11:20:53.266Z,28.90
2017-08-15T11:23:21.042Z,29.24
2017-08-15T11:25:48.700Z,29.33
2017-08-15T11:28:16.506Z,28.72
2017-08-15T11:30:44.204Z,29.03
2017-08-15T11:33:11.968Z,29.03
2017-08-15T11:35:39.763Z,29.21
2017-08-15T11:38:07.530Z,29.47
2017-08-15T11:40:35.338Z,29.33
2017-08-15T11:43:03.118Z,29.33
2017-08-15T11:45:30.973Z,29.40
2017-08-15T11:47:58.660Z,29.08
2017-08-15T11:50:26.446Z,29.22
2017-08-15T11:52:54.169Z,29.84
2017-08-15T11:55:21.859Z,29.63
2017-08-15T11:57:49.622Z,29.80
2017-08-15T12:00:17.351Z,30.18
2017-08-15T12:02:45.078Z,30.49
2017-08-15T12:05:12.855Z,30.63
2017-08-15T12:07:40.638Z,30.69
2017-08-15T12:10:08.337Z,30.08
2017-08-15T12:12:36.156Z,29.65
2017-08-15T12:15:03.946Z,29.93
2017-08-15T12:17:31.691Z,29.97
2017-08-15T12:19:59.484Z,30.16
2017-08-15T12:22:27.216Z,30.13
2017-08-15T12:24:54.988Z,29.72
2017-08-15T12:27:22.760Z,29.75
2017-08-15T12:29:50.467Z,30.24
2017-08-15T12:32:18.155Z,30.12
2017-08-15T12:34:45.895Z,30.59
2017-08-15T12:37:13.584Z,30.52
2017-08-15T12:39:41.310Z,30.91
2017-08-15T12:42:09.011Z,31.07
2017-08-15T12:44:36.818Z,31.07
2017-08-15T12:47:04.508Z,31.00
2017-08-15T12:49:32.242Z,30.96
2017-08-15T12:51:59.934Z,30.75
2017-08-15T12:54:27.622Z,30.63
2017-08-15T12:56:55.359Z,30.69
2017-08-15T12:59:23.044Z,30.06
2017-08-15T13:01:50.777Z,29.97
2017-08-15T13:04:18.560Z,29.86
2017-08-15T13:06:46.370Z,29.82
2017-08-15T13:09:14.130Z,29.77
2017-08-15T13:11:41.840Z,30.27
2017-08-15T13:14:09.574Z,30.65
2017-08-15T13:16:37.378Z,30.59
2017-08-15T13:19:05.186Z,30.48
2017-08-15T13:21:32.960Z,30.08
2017-08-15T13:24:00.661Z,29.90
2017-08-15T13:26:28.443Z,29.68
2017-08-15T13:28:56.224Z,29.30
2017-08-15T13:31:24.019Z,28.88
2017-08-15T13:33:51.823Z,28.69
2017-08-15T13:36:19.608Z,28.57
2017-08-15T13:38:47.475Z,28.49
2017-08-15T13:41:15.217Z,28.94
2017-08-15T13:43:43.037Z,29.04
2017-08-15T13:46:10.805Z,29.27
2017-08-15T13:48:38.604Z,29.85
2017-08-15T13:51:06.377Z,30.24
2017-08-15T13:53:34.141Z,30.35
2017-08-15T13:56:01.889Z,30.26
2017-08-15T13:58:29.693Z,30.34
2017-08-15T14:00:57.518Z,30.12
2017-08-15T14:03:25.328Z,29.99
2017-08-15T14:05:55.893Z,29.94
2017-08-15T14:08:23.758Z,30.03
2017-08-15T14:10:52.137Z,29.88
2017-08-15T14:13:19.950Z,29.95
2017-08-15T14:15:47.870Z,29.96
2017-08-15T14:18:15.801Z,29.86
2017-08-15T14:20:43.539Z,29.67
2017-08-15T14:23:11.297Z,29.73
2017-08-15T14:25:39.113Z,29.57
2017-08-15T14:28:06.867Z,29.42
2017-08-15T14:30:34.589Z,29.44
2017-08-15T14:33:02.349Z,29.59
2017-08-15T14:35:30.115Z,29.80
2017-08-15T14:37:57.900Z,29.61
2017-08-15T14:40:25.729Z,29.43
2017-08-15T14:42:53.488Z,29.48
2017-08-15T14:45:21.359Z,29.42
2017-08-15T14:47:49.104Z,29.42
2017-08-15T14:50:16.881Z,29.56
2017-08-15T14:52:44.708Z,29.42
2017-08-15T14:55:12.440Z,29.28
2017-08-15T14:57:40.317Z,29.26
2017-08-15T15:00:08.047Z,29.29
2017-08-15T15:02:35.822Z,29.30
2017-08-15T15:05:03.668Z,29.36
2017-08-15T15:07:31.516Z,29.20
2017-08-15T15:09:59.364Z,28.93
2017-08-15T15:12:27.095Z,29.03
2017-08-15T15:14:54.917Z,28.94
2017-08-15T15:17:22.728Z,28.97
2017-08-15T15:19:50.517Z,29.01
2017-08-15T15:22:18.384Z,28.88
2017-08-15T15:24:46.121Z,28.88
2017-08-15T15:27:13.954Z,28.84
2017-08-15T15:29:41.743Z,28.55
2017-08-15T15:32:09.565Z,28.39
2017-08-15T15:34:37.613Z,28.45
2017-08-15T15:37:05.318Z,28.44
2017-08-15T15:39:33.029Z,28.15
2017-08-15T15:42:00.835Z,27.82
2017-08-15T15:44:28.658Z,27.49
2017-08-15T15:46:56.512Z,27.33
2017-08-15T15:49:24.265Z,27.24
2017-08-15T15:51:52.093Z,27.31
2017-08-15T15:54:19.894Z,26.95
2017-08-15T15:56:47.620Z,26.66
2017-08-15T15:59:15.388Z,26.63
2017-08-15T16:01:43.185Z,26.65
2017-08-15T16:04:10.955Z,26.41
2017-08-15T16:06:38.723Z,26.30
2017-08-15T16:09:06.488Z,26.15
2017-08-15T16:11:34.205Z,25.97
2017-08-15T16:14:01.992Z,26.11
2017-08-15T16:16:29.704Z,25.83
2017-08-15T16:18:58.392Z,25.85
2017-08-15T16:21:26.142Z,25.77
2017-08-15T16:23:53.853Z,25.84
2017-08-15T16:26:21.642Z,25.84
2017-08-15T16:28:49.427Z,25.75
2017-08-15T16:31:17.303Z,25.60
2017-08-15T16:33:45.050Z,25.47
2017-08-15T16:36:12.749Z,25.47
2017-08-15T16:38:40.497Z,25.61
2017-08-15T16:41:08.272Z,25.53
2017-08-15T16:43:36.130Z,25.45
2017-08-15T16:46:03.936Z,25.42
2017-08-15T16:48:31.747Z,25.29
2017-08-15T16:50:59.577Z,25.24
2017-08-15T16:53:27.537Z,25.22
2017-08-15T16:55:55.362Z,25.13
2017-08-15T16:58:23.185Z,25.20
2017-08-15T17:00:51.025Z,25.01
2017-08-15T17:03:18.818Z,24.84
2017-08-15T17:05:46.630Z,24.83
2017-08-15T17:08:14.427Z,24.68
2017-08-15T17:10:42.461Z,24.72
2017-08-15T17:13:10.343Z,24.73
2017-08-15T17:15:38.189Z,24.72
2017-08-15T17:18:05.925Z,24.60
2017-08-15T17:20:33.811Z,24.58
2017-08-15T17:23:01.572Z,24.56
2017-08-15T17:25:29.543Z,24.49
2017-08-15T17:27:57.377Z,24.38
2017-08-15T17:30:25.289Z,24.23
2017-08-15T17:32:53.105Z,24.12
2017-08-15T17:35:20.964Z,24.08
2017-08-15T17:37:49.688Z,24.03
2017-08-15T17:40:20.223Z,23.95
2017-08-15T17:42:48.038Z,23.82
2017-08-15T17:45:17.133Z,23.84
2017-08-15T17:47:45.008Z,23.75
2017-08-15T17:50:12.728Z,23.64
2017-08-15T17:52:40.490Z,23.62
2017-08-15T17:55:08.358Z,23.51
2017-08-15T17:57:36.182Z,23.48
2017-08-15T18:00:04.054Z,23.35
2017-08-15T18:02:32.003Z,23.20
2017-08-15T18:04:59.823Z,23.04
2017-08-15T18:07:27.602Z,22.91
2017-08-15T18:09:55.516Z,22.81
2017-08-15T18:12:23.428Z,22.83
2017-08-15T18:14:51.189Z,22.71
2017-08-15T18:17:19.074Z,22.51
2017-08-15T18:19:46.839Z,22.41
2017-08-15T18:22:14.661Z,22.22
2017-08-15T18:24:43.358Z,22.29
2017-08-15T18:27:11.137Z,22.33
2017-08-15T18:29:38.929Z,22.32
2017-08-15T18:32:06.759Z,22.34
2017-08-15T18:34:34.601Z,22.20
2017-08-15T18:37:02.372Z,22.11
2017-08-15T18:39:30.209Z,21.91
2017-08-15T18:41:58.015Z,21.87
2017-08-15T18:44:25.886Z,21.63
2017-08-15T18:46:53.713Z,21.80
2017-08-15T18:49:21.609Z,21.61
2017-08-15T18:51:49.484Z,21.42
2017-08-15T18:54:17.421Z,21.41
2017-08-15T18:56:45.278Z,21.17
2017-08-15T18:59:13.185Z,21.28
2017-08-15T19:01:42.545Z,21.27
2017-08-15T19:04:14.519Z,21.10
2017-08-15T19:06:43.450Z,21.34
2017-08-15T19:09:12.608Z,21.31
2017-08-15T19:11:40.544Z,21.18
2017-08-15T19:14:09.025Z,20.90
2017-08-15T19:16:38.182Z,20.79
2017-08-15T19:19:09.205Z,20.68
2017-08-15T19:21:37.332Z,20.74
2017-08-15T19:24:06.876Z,20.67
2017-08-15T19:26:35.736Z,20.74
2017-08-15T19:29:04.121Z,20.49
2017-08-15T19:31:33.497Z,20.50
2017-08-15T19:34:02.258Z,20.27
2017-08-15T19:36:30.509Z,20.41
2017-08-15T19:38:58.492Z,20.38
2017-08-15T19:41:26.387Z,20.51
2017-08-15T19:43:54.228Z,20.26
2017-08-15T19:46:22.028Z,20.31
2017-08-15T19:48:49.916Z,20.09
2017-08-15T19:51:17.693Z,20.03
2017-08-15T19:53:45.652Z,20.08
2017-08-15T19:56:13.567Z,20.03
2017-08-15T19:58:41.536Z,20.00
2017-08-15T20:01:09.413Z,19.83
2017-08-15T20:03:37.416Z,19.93
2017-08-15T20:06:05.278Z,19.98
2017-08-15T20:08:33.164Z,19.68
2017-08-15T20:11:01.137Z,19.50
2017-08-15T20:13:28.936Z,19.64
2017-08-15T20:15:56.712Z,19.70
2017-08-15T20:18:24.809Z,19.66
2017-08-15T20:20:52.628Z,19.56
2017-08-15T20:23:20.433Z,19.47
2017-08-15T20:25:48.354Z,19.51
2017-08-15T20:28:16.950Z,19.44
2017-08-15T20:30:44.860Z,19.30
2017-08-15T20:33:12.694Z,19.28
2017-08-15T20:35:40.565Z,19.22
2017-08-15T20:38:08.501Z,19.23
2017-08-15T20:40:36.484Z,19.18
2017-08-15T20:43:04.261Z,19.15
2017-08-15T20:45:32.100Z,18.96
2017-08-15T20:48:00.732Z,18.87
2017-08-15T20:50:29.397Z,19.01
2017-08-15T20:52:57.370Z,18.89
2017-08-15T20:55:25.783Z,19.00
2017-08-15T20:57:53.666Z,18.84
2017-08-15T21:00:21.449Z,18.72
2017-08-15T21:02:49.314Z,18.75
2017-08-15T21:05:17.183Z,18.77
2017-08-15T21:07:45.023Z,18.75
2017-08-15T21:10:12.752Z,18.73
2017-08-15T21:12:40.518Z,18.63
2017-08-15T21:15:09.249Z,18.56
2017-08-15T21:17:36.976Z,18.45
2017-08-15T21:20:04.738Z,18.53
2017-08-15T21:22:32.523Z,18.43
2017-08-15T21:25:00.307Z,18.44
2017-08-15T21:27:28.067Z,18.36
2017-08-15T21:29:55.939Z,18.21
2017-08-15T21:32:23.738Z,18.27
2017-08-15T21:34:51.639Z,18.20
2017-08-15T21:37:19.455Z,18.13
2017-08-15T21:39:47.456Z,18.45
2017-08-15T21:42:15.190Z,18.31
2017-08-15T21:44:43.031Z,18.12
2017-08-15T21:47:10.793Z,18.05
2017-08-15T21:49:38.609Z,18.17
2017-08-15T21:52:06.416Z,18.05
2017-08-15T21:54:34.311Z,18.11
2017-08-15T21:57:02.138Z,18.01
2017-08-15T21:59:29.932Z,18.07
2017-08-15T22:02:12.576Z,17.93
2017-08-15T22:04:40.316Z,17.90
2017-08-15T22:07:08.113Z,17.88
2017-08-15T22:09:35.980Z,17.96
2017-08-15T22:12:03.885Z,17.98
2017-08-15T22:14:31.833Z,17.94
2017-08-15T22:16:59.665Z,17.78
2017-08-15T22:19:27.510Z,17.79
2017-08-15T22:21:55.323Z,17.86
2017-08-15T22:24:23.252Z,17.64
2017-08-15T22:26:51.058Z,17.57
2017-08-15T22:29:18.786Z,17.59
2017-08-15T22:31:46.596Z,17.62
2017-08-15T22:34:14.373Z,17.61
2017-08-15T22:36:42.278Z,17.78
2017-08-15T22:39:10.125Z,17.53
2017-08-15T22:41:37.925Z,17.32
2017-08-15T22:44:05.828Z,17.39
2017-08-15T22:46:33.601Z,17.22
2017-08-15T22:49:01.460Z,17.24
2017-08-15T22:51:29.259Z,17.25
2017-08-15T22:53:57.146Z,17.42
2017-08-15T22:56:24.930Z,17.34
2017-08-15T22:58:52.712Z,17.28
2017-08-15T23:01:20.720Z,17.15
2017-08-15T23:03:48.667Z,17.19
2017-08-15T23:06:16.468Z,17.13
2017-08-15T23:08:44.326Z,17.09
2017-08-15T23:11:12.789Z,17.09
2017-08-15T23:13:40.594Z,17.18
2017-08-15T23:16:09.522Z,17.14
2017-08-15T23:18:37.388Z,17.12
2017-08-15T23:21:06.183Z,17.04
2017-08-15T23:23:34.041Z,17.05
2017-08-15T23:26:01.893Z,16.94
2017-08-15T23:28:29.719Z,16.96
2017-08-15T23:30:57.568Z,16.94
2017-08-15T23:33:25.491Z,16.98
2017-08-15T23:35:53.291Z,16.80
2017-08-15T23:38:21.228Z,16.83
2017-08-15T23:40:49.410Z,16.89
2017-08-15T23:43:17.234Z,16.86
2017-08-15T23:45:45.040Z,16.95
2017-08-15T23:48:12.817Z,16.73
2017-08-15T23:50:40.718Z,16.79
2017-08-15T23:53:08.569Z,16.72
2017-08-15T23:55:36.410Z,16.65
2017-08-15T23:58:04.214Z,16.58
